createdAt,value
2023-05-14T00:01:01.971Z,12.63
2023-05-14T00:11:23.297Z,12.48
2023-05-14T00:21:46.325Z,11.85
2023-05-14T00:32:08.305Z,11.82
2023-05-14T00:42:31.544Z,12.32
2023-05-14T00:52:53.063Z,12.40
2023-05-14T01:03:15.852Z,12.40
2023-05-14T01:13:45.515Z,13.93
2023-05-14T01:24:08.630Z,13.13
2023-05-14T01:34:32.338Z,13.50
2023-05-14T01:44:56.705Z,13.43
2023-05-14T01:55:19.192Z,12.18
2023-05-14T02:05:41.806Z,12.20
2023-05-14T02:16:03.266Z,11.77
2023-05-14T02:26:26.414Z,11.13
2023-05-14T02:36:48.003Z,11.20
2023-05-14T02:47:11.441Z,9.65
2023-05-14T02:57:32.944Z,10.75
2023-05-14T03:07:55.598Z,9.40
2023-05-14T03:18:16.984Z,9.23
2023-05-14T03:28:42.668Z,9.80
2023-05-14T03:39:06.753Z,9.02
2023-05-14T03:49:29.998Z,8.98
2023-05-14T03:59:51.914Z,8.98
2023-05-14T04:10:15.758Z,9.55
2023-05-14T04:20:37.764Z,9.15
2023-05-14T04:31:01.214Z,9.75
2023-05-14T04:41:22.412Z,8.60
2023-05-14T04:51:45.185Z,9.13
2023-05-14T05:02:06.769Z,8.32
2023-05-14T05:12:30.101Z,8.15
2023-05-14T05:22:52.764Z,7.28
2023-05-14T05:33:15.499Z,7.07
2023-05-14T05:43:36.901Z,6.95
2023-05-14T05:53:59.678Z,6.40
2023-05-14T06:04:22.453Z,6.45
2023-05-14T06:14:45.201Z,5.65
2023-05-14T06:25:07.347Z,6.00
2023-05-14T06:35:30.363Z,6.72
2023-05-14T06:45:52.543Z,6.07
2023-05-14T06:56:15.709Z,6.00
2023-05-14T07:06:37.181Z,5.55
2023-05-14T07:17:02.227Z,4.72
2023-05-14T07:27:23.685Z,5.15
2023-05-14T07:37:50.856Z,4.63
2023-05-14T07:48:13.886Z,4.80
2023-05-14T07:58:37.405Z,4.40
2023-05-14T08:08:59.631Z,4.23
2023-05-14T08:19:24.000Z,3.63
2023-05-14T08:29:45.721Z,4.47
2023-05-14T08:40:13.349Z,3.60
2023-05-14T08:50:37.956Z,3.97
2023-05-14T09:01:01.397Z,4.05
2023-05-14T09:11:22.653Z,3.90
2023-05-14T09:21:48.817Z,3.70
2023-05-14T09:32:10.930Z,3.50
2023-05-14T09:42:34.033Z,3.28
2023-05-14T09:52:56.952Z,3.43
2023-05-14T10:03:24.141Z,3.60
2023-05-14T10:13:51.089Z,3.22
2023-05-14T10:24:14.271Z,3.20
2023-05-14T10:34:38.452Z,3.35
2023-05-14T10:55:26.859Z,3.60
2023-05-14T11:05:51.452Z,3.33
2023-05-14T11:26:44.726Z,4.97
2023-05-14T11:37:06.770Z,4.22
2023-05-14T11:47:30.967Z,3.88
2023-05-14T11:57:53.593Z,5.15
2023-05-14T12:08:23.369Z,4.10
2023-05-14T12:18:45.096Z,4.18
2023-05-14T12:29:08.096Z,3.83
2023-05-14T12:39:31.223Z,3.88
2023-05-14T12:49:53.955Z,3.78
2023-05-14T13:36:49.928Z,5.22
2023-05-14T13:47:21.182Z,7.20
2023-05-14T13:57:43.094Z,3.55
2023-05-14T14:08:21.982Z,3.20
2023-05-14T14:18:46.216Z,3.55
2023-05-14T14:29:09.869Z,3.90
2023-05-14T14:39:31.258Z,3.20
2023-05-14T14:49:53.955Z,2.80
2023-05-14T15:00:17.678Z,3.00
2023-05-14T15:10:41.595Z,3.40
2023-05-14T15:21:03.358Z,3.47
2023-05-14T15:31:26.281Z,3.63
2023-05-14T15:41:47.780Z,3.43
2023-05-14T15:52:11.382Z,3.65
2023-05-14T16:02:34.364Z,3.72
2023-05-14T16:12:57.807Z,4.72
2023-05-14T16:23:19.703Z,3.27
2023-05-14T16:33:42.689Z,3.50
2023-05-14T16:44:04.347Z,3.08
2023-05-14T16:54:29.015Z,2.80
2023-05-14T17:04:50.708Z,3.08
2023-05-14T17:15:13.957Z,3.30
2023-05-14T17:35:58.195Z,3.30
2023-05-14T17:46:19.759Z,3.70
2023-05-14T17:56:42.740Z,3.95
2023-05-14T18:07:04.564Z,4.50
2023-05-14T18:17:27.779Z,3.95
2023-05-14T18:27:49.580Z,4.60
2023-05-14T18:38:13.697Z,4.03
2023-05-14T18:48:35.394Z,3.97
2023-05-14T18:58:58.450Z,4.43
2023-05-14T19:09:21.358Z,4.35
2023-05-14T19:19:51.995Z,6.53
2023-05-14T19:30:14.862Z,5.68
2023-05-14T19:40:38.816Z,5.40
2023-05-14T19:51:00.465Z,5.93
2023-05-14T20:01:26.351Z,6.28
2023-05-14T20:11:47.932Z,7.57
2023-05-14T20:22:11.864Z,7.15
2023-05-14T20:32:36.023Z,6.55
2023-05-14T20:42:58.978Z,7.43
2023-05-14T20:53:21.390Z,7.93
2023-05-14T21:03:58.518Z,8.98
2023-05-14T21:14:22.652Z,8.98
2023-05-14T21:24:45.882Z,9.15
2023-05-14T21:35:08.093Z,9.45
2023-05-14T21:45:30.761Z,10.48
2023-05-14T21:55:55.272Z,9.98
2023-05-14T22:06:18.862Z,9.40
2023-05-14T22:16:40.461Z,9.38
2023-05-14T22:27:03.432Z,10.18
2023-05-14T22:37:25.182Z,9.48
2023-05-14T22:47:48.117Z,9.57
2023-05-14T22:58:10.300Z,9.40
2023-05-14T23:08:33.721Z,10.65
2023-05-14T23:18:55.825Z,9.77
2023-05-14T23:29:19.174Z,10.10
2023-05-14T23:39:40.736Z,10.05
2023-05-14T23:50:08.496Z,10.55
